Salt Flat, TX (79847)

3:07 PM MDT on September 25, 2016 (GMT -0600)
APRSWXNET | | Change Station
Active Advisory: Wind Advisory

Elev 3694 ft 31.73 °N, 104.93 °W | Updated 34 minutes ago

Mostly Cloudy
Mostly Cloudy
72 °F
Feels Like 77 °F
N
2
Wind Variable Wind from West
Gusts 4.0 mph

Today
High -- | Low -- °F
--% Chance of Precip.
Yesterday
High -- | Low -- °F
Precip. -- in
Pressure 30.07 in
Visibility 10.0 miles
Clouds Mostly Cloudy 9500 ft
Heat Index 77 °F
Dew Point 55 °F
Humidity 56%
Rainfall in
Snow Depth Not available.
6:50 AM 6:52 PM
Waning Crescent, 25% visible
METAR KGDP 252051Z AUTO 05020G26KT 10SM BKN095 19/09 A3025 RMK AO2 PK WND 05028/2026 SLP182 T01890089 50005
Pressure 30.07 in
Visibility 10.0 miles
Clouds Mostly Cloudy 9500 ft
Heat Index 77 °F
Dew Point 55 °F
Humidity 56%
Rainfall in
Snow Depth Not available.
6:50 AM 6:52 PM
Waning Crescent, 25% visible
METAR KGDP 252051Z AUTO 05020G26KT 10SM BKN095 19/09 A3025 RMK AO2 PK WND 05028/2026 SLP182 T01890089 50005

10-Day Weather Forecast

Almanac

Astronomy

Sep. 25, 2016 Rise Set
Actual Time
Civil Twilight
Nautical Twilight
Astronomical Twilight
Moon
Length of Visible Light
Length of Day
Tomorrow will be .
, % of the Moon is Illuminated

Today's Extremes

State Highs State Lows

Community

WunderPhotos

Upload Photos

1,941,731 photos uploaded!

WunderBlog® & News

Nearby

Air Quality

  Air Quality AQ Index Pollutant
Not available.

Snow Depth

Station Depth Elevation

Earthquake Activity

City Distance Mag. Time & Date
Minimum magnitude displayed is 2.5.

Coastal Water Temperatures

Place Temperature

Stations

Nearby Weather Stations

Station Location Temp. Windchill Dew Point Humidity Wind Precip. Elev Updated Type
                   

Watches & Warnings

Wind Advisory
Issued: 2:50 PM MDT Sep. 25, 2016 – National Weather Service

... Wind Advisory remains in effect from 6 PM this evening to 6 PM
MDT Monday...

* timing... strong winds will occur between 6 PM this evening to
6 PM Monday with strongest winds occurring between 9 PM and
9 am.

* Winds... east winds between 25 to 35 mph with stronger gusts
to 50 mph along the west slopes of area mountains.

* Impacts... strong cross winds could create hazardous driving
conditions for high profile vehicles on north-south roads.
Light and loose objects could be blown around by strong winds.
Weak tree branches could break during strong winds.

Precautionary/preparedness actions...

A Wind Advisory means that winds of 35 mph are expected. Winds
this strong can make driving difficult... especially for high
profile vehicles. Use extra caution.


26